Terminal Aerodrome Forecast
Issued by NWS Buffalo, NY

Current Version | Previous Version | Text Only | Print | Product List | Glossary On
Versions: 1 2 3 4 5 6 7 8 9 10 11 12 13 14 15 16 17 18 19 20 21 22 23 24 25 26 27 28 29 30 31 32 33
000
FTUS41 KBUF 021729
TAFART
TAF
KART 021729Z 0218/0318 23008KT P6SM BKN012
     FM021900 24007KT P6SM SCT030
     FM030000 21004KT P6SM SCT250
     FM030300 00000KT 4SM BR SCT060
     FM030800 00000KT P6SM BKN045
     FM031600 32004KT P6SM BKN060=

USA.gov is the U.S. government's official web portal to all federal, state and local government web resources and services.